Time;durP1;ratioP1;P1;durP2;ratioP2;P2;SDS_P1;SDS_P2;PMS_P1;PMS_P2;Temp;Humidity;BMP_temperature;BMP_pressure;BME280_temperature;BME280_humidity;BME280_pressure;Samples;Min_cycle;Max_cycle;Signal;HPM_P1;HPM_P2
2022/07/28 00:00:17;;;;;;;4.60;2.37;;;16.20;1.00;;;;;;5056187;28;20794;-78
2022/07/28 00:02:44;;;;;;;2.53;1.80;;;16.10;1.00;;;;;;5056383;28;20481;-78
2022/07/28 00:05:11;;;;;;;3.33;2.03;;;16.20;1.00;;;;;;5056705;28;20454;-78
2022/07/28 00:07:37;;;;;;;2.50;1.80;;;16.20;1.00;;;;;;5055408;28;20481;-78
2022/07/28 00:10:05;;;;;;;4.90;1.80;;;16.20;1.00;;;;;;5057237;28;20468;-78
2022/07/28 00:12:33;;;;;;;7.17;2.80;;;16.20;1.00;;;;;;5056232;28;20948;-78
2022/07/28 00:15:00;;;;;;;4.10;2.20;;;16.10;1.00;;;;;;5056137;28;20450;-78
2022/07/28 00:17:27;;;;;;;4.90;2.20;;;16.20;1.00;;;;;;5055885;28;20469;-78
2022/07/28 00:19:54;;;;;;;2.40;2.07;;;16.00;1.00;;;;;;5056200;28;20452;-79
2022/07/28 00:22:21;;;;;;;6.47;2.43;;;16.00;1.00;;;;;;5056783;28;20482;-78
2022/07/28 00:24:47;;;;;;;3.43;2.20;;;15.90;1.00;;;;;;5054201;28;20848;-80
2022/07/28 00:27:15;;;;;;;5.70;2.17;;;15.90;1.00;;;;;;5055510;28;20480;-78
2022/07/28 00:29:43;;;;;;;5.10;2.63;;;15.80;1.00;;;;;;5056112;28;20453;-77
2022/07/28 00:32:10;;;;;;;9.03;2.73;;;15.70;1.00;;;;;;5055501;28;20811;-80
2022/07/28 00:34:37;;;;;;;6.50;2.40;;;15.70;1.00;;;;;;5055435;28;20452;-78
2022/07/28 00:37:04;;;;;;;4.23;2.40;;;15.70;1.00;;;;;;5055822;28;20889;-78
2022/07/28 00:39:30;;;;;;;3.40;2.20;;;15.80;21.00;;;;;;5054752;28;20449;-79
2022/07/28 00:41:57;;;;;;;3.70;2.30;;;15.70;1.00;;;;;;5055741;28;20478;-79
2022/07/28 00:44:24;;;;;;;8.10;2.47;;;15.70;5.90;;;;;;5055913;28;20441;-79
2022/07/28 00:46:52;;;;;;;3.60;1.53;;;15.70;1.00;;;;;;5056205;28;20838;-80
2022/07/28 00:49:19;;;;;;;3.57;2.03;;;15.60;1.00;;;;;;5056578;28;20867;-79
2022/07/28 00:51:46;;;;;;;3.73;1.90;;;15.60;1.00;;;;;;5055676;28;20520;-78
2022/07/28 00:54:13;;;;;;;2.13;1.90;;;15.60;1.00;;;;;;5055651;28;20444;-79
2022/07/28 00:56:40;;;;;;;5.83;2.30;;;15.70;99.90;;;;;;5055524;28;20442;-78
2022/07/28 00:59:07;;;;;;;2.50;2.00;;;15.60;5.80;;;;;;5059229;28;20442;-79
2022/07/28 01:01:33;;;;;;;6.83;2.73;;;15.50;8.30;;;;;;5063087;28;20824;-79
2022/07/28 01:04:03;;;;;;;3.10;1.60;;;15.50;26.90;;;;;;5064176;28;20814;-79
2022/07/28 01:06:45;;;;;;;2.57;2.37;;;15.50;36.00;;;;;;5059591;28;20453;-79
2022/07/28 01:09:23;;;;;;;3.60;2.30;;;15.30;97.40;;;;;;5059681;28;20437;-78
2022/07/28 01:11:57;;;;;;;2.10;1.87;;;15.30;99.90;;;;;;5060282;28;20405;-78
2022/07/28 01:14:31;;;;;;;3.27;2.80;;;15.30;99.90;;;;;;5058771;28;20483;-79
2022/07/28 01:17:07;;;;;;;3.63;2.40;;;15.20;99.90;;;;;;5059969;28;20472;-78
2022/07/28 01:19:43;;;;;;;2.50;2.03;;;15.20;99.90;;;;;;5059398;28;20479;-77
2022/07/28 01:22:12;;;;;;;7.13;2.23;;;15.20;99.90;;;;;;5062493;28;20465;-76
2022/07/28 01:24:49;;;;;;;5.93;2.07;;;15.10;99.90;;;;;;5066794;28;20446;-78
2022/07/28 01:27:29;;;;;;;4.87;2.10;;;15.20;99.90;;;;;;5065500;28;20833;-76
2022/07/28 01:30:08;;;;;;;3.43;2.23;;;15.10;99.90;;;;;;5069488;28;20445;-76
2022/07/28 01:32:41;;;;;;;6.30;2.23;;;15.00;99.90;;;;;;5069026;28;20426;-78
2022/07/28 01:35:13;;;;;;;4.87;2.10;;;15.00;1.00;;;;;;5059941;28;20444;-77
2022/07/28 01:37:44;;;;;;;4.00;2.30;;;15.00;1.00;;;;;;5058922;28;20468;-78
2022/07/28 01:40:15;;;;;;;11.53;2.30;;;15.00;1.00;;;;;;5065407;28;20802;-77
2022/07/28 01:42:45;;;;;;;2.10;1.90;;;15.00;1.00;;;;;;5070195;28;20952;-77
2022/07/28 01:45:14;;;;;;;4.47;1.73;;;14.90;1.00;;;;;;5061328;28;20408;-79
2022/07/28 01:47:43;;;;;;;3.23;2.20;;;14.80;1.00;;;;;;5060527;28;20496;-78
2022/07/28 01:50:13;;;;;;;4.27;2.20;;;14.70;99.90;;;;;;5059825;28;20456;-78
2022/07/28 01:52:41;;;;;;;5.43;2.43;;;14.70;99.90;;;;;;5058222;28;20445;-77
2022/07/28 01:55:09;;;;;;;4.43;2.80;;;14.60;99.90;;;;;;5058981;28;20445;-78
2022/07/28 01:57:37;;;;;;;6.50;2.37;;;14.60;1.00;;;;;;5063465;28;20837;-77
2022/07/28 02:00:06;;;;;;;3.50;2.43;;;14.60;1.00;;;;;;5065377;28;20457;-76
2022/07/28 02:02:34;;;;;;;6.10;2.20;;;14.60;1.00;;;;;;5063307;28;20485;-78
2022/07/28 02:05:04;;;;;;;2.60;2.17;;;14.60;99.90;;;;;;5057057;28;20425;-77
2022/07/28 02:07:34;;;;;;;5.17;2.33;;;14.60;99.90;;;;;;5058660;28;20516;-77
2022/07/28 02:10:02;;;;;;;3.10;2.43;;;14.60;99.90;;;;;;5058084;28;20529;-80
2022/07/28 02:12:30;;;;;;;4.13;2.70;;;14.50;1.00;;;;;;5062634;28;20416;-77
2022/07/28 02:14:59;;;;;;;9.87;3.23;;;14.50;99.90;;;;;;5061600;28;20456;-78
2022/07/28 02:17:30;;;;;;;6.07;2.20;;;14.50;99.90;;;;;;5059011;28;20470;-79
2022/07/28 02:19:58;;;;;;;8.50;2.50;;;14.50;1.00;;;;;;5058616;28;20456;-78
2022/07/28 02:22:27;;;;;;;5.17;2.20;;;14.40;99.90;;;;;;5057870;28;20488;-78
2022/07/28 02:24:55;;;;;;;3.63;2.63;;;14.40;99.90;;;;;;5058021;28;20442;-79
2022/07/28 02:27:26;;;;;;;4.13;1.90;;;14.40;7.10;;;;;;5057882;28;20484;-78
2022/07/28 02:30:07;;;;;;;4.90;2.10;;;14.50;1.00;;;;;;5059525;28;20434;-79
2022/07/28 02:32:39;;;;;;;4.83;2.07;;;14.30;99.90;;;;;;5057525;28;20433;-78
2022/07/28 02:35:11;;;;;;;3.23;2.37;;;14.30;99.90;;;;;;5057955;28;20437;-78
2022/07/28 02:37:44;;;;;;;6.50;2.30;;;14.20;1.00;;;;;;5058711;28;20457;-78
2022/07/28 02:40:14;;;;;;;4.50;2.27;;;14.20;89.20;;;;;;5057545;28;20909;-79
2022/07/28 02:42:45;;;;;;;4.97;2.47;;;14.20;87.70;;;;;;5057763;28;20496;-78
2022/07/28 02:45:12;;;;;;;4.37;2.53;;;14.20;99.90;;;;;;5058149;28;20400;-78
2022/07/28 02:47:45;;;;;;;4.60;2.80;;;14.20;99.90;;;;;;5057907;28;20470;-78
2022/07/28 02:50:14;;;;;;;8.17;2.73;;;14.10;99.90;;;;;;5057757;28;20935;-78
2022/07/28 02:52:45;;;;;;;2.50;2.10;;;14.00;99.90;;;;;;5057897;28;20450;-79
2022/07/28 02:55:15;;;;;;;6.87;2.57;;;14.10;99.90;;;;;;5058586;28;20445;-79
2022/07/28 02:57:43;;;;;;;4.80;2.60;;;14.00;99.90;;;;;;5064838;28;20476;-77
2022/07/28 03:00:13;;;;;;;3.03;2.57;;;13.90;1.00;;;;;;5067713;28;20456;-78
2022/07/28 03:02:40;;;;;;;5.17;3.00;;;14.00;1.00;;;;;;5068773;28;20520;-77
2022/07/28 03:05:11;;;;;;;4.77;3.03;;;14.10;1.00;;;;;;5068802;28;20528;-77
2022/07/28 03:07:38;;;;;;;3.87;3.10;;;14.10;1.00;;;;;;5067199;28;20474;-79
2022/07/28 03:10:06;;;;;;;4.90;2.90;;;14.10;1.00;;;;;;5063726;28;20458;-77
2022/07/28 03:12:33;;;;;;;4.20;3.03;;;14.00;1.00;;;;;;5068875;28;20412;-76
2022/07/28 03:15:00;;;;;;;4.60;3.10;;;14.00;1.00;;;;;;5063038;28;20424;-77
2022/07/28 03:17:27;;;;;;;6.33;3.17;;;14.10;1.00;;;;;;5060399;28;20473;-77
2022/07/28 03:19:53;;;;;;;4.63;2.73;;;14.10;1.00;;;;;;5058427;28;20827;-79
2022/07/28 03:22:20;;;;;;;3.70;2.50;;;14.10;1.00;;;;;;5056915;28;20473;-79
2022/07/28 03:24:52;;;;;;;7.50;3.90;;;14.00;1.00;;;;;;5058160;28;20446;-79
2022/07/28 03:27:25;;;;;;;3.07;2.77;;;14.00;1.00;;;;;;5057320;28;20477;-79
2022/07/28 03:29:57;;;;;;;5.10;2.40;;;14.00;1.00;;;;;;5057906;28;20426;-78
2022/07/28 03:32:26;;;;;;;3.30;2.50;;;13.90;1.00;;;;;;5056016;28;20433;-77
2022/07/28 03:34:54;;;;;;;4.10;2.57;;;14.00;1.00;;;;;;5056028;28;20453;-78
2022/07/28 03:37:25;;;;;;;8.17;2.87;;;14.00;1.00;;;;;;5056433;28;20916;-78
2022/07/28 03:39:56;;;;;;;3.90;2.97;;;13.90;1.00;;;;;;5058879;28;20434;-79
2022/07/28 03:42:27;;;;;;;9.47;3.53;;;13.90;1.00;;;;;;5057290;28;20477;-79
2022/07/28 03:44:54;;;;;;;4.50;2.53;;;13.80;1.00;;;;;;5056856;28;20430;-79
2022/07/28 03:47:22;;;;;;;4.53;2.77;;;13.80;1.00;;;;;;5056840;28;20469;-78
2022/07/28 03:49:49;;;;;;;5.30;2.73;;;13.80;1.00;;;;;;5056403;28;20449;-78
2022/07/28 03:52:17;;;;;;;3.53;2.87;;;13.90;1.00;;;;;;5056637;28;20528;-79
2022/07/28 03:54:44;;;;;;;3.87;2.83;;;13.90;1.00;;;;;;5055883;28;20450;-79
2022/07/28 03:57:12;;;;;;;8.83;3.53;;;13.90;1.00;;;;;;5056116;28;20481;-79
2022/07/28 03:59:40;;;;;;;4.50;3.23;;;13.90;1.00;;;;;;5056961;28;20446;-78
2022/07/28 04:02:07;;;;;;;7.70;3.37;;;13.90;1.00;;;;;;5061448;28;20452;-79
2022/07/28 04:04:33;;;;;;;3.93;2.30;;;13.90;1.00;;;;;;5061626;28;20450;-78
2022/07/28 04:07:00;;;;;;;3.67;2.30;;;14.00;1.00;;;;;;5059193;28;20465;-79
2022/07/28 04:09:27;;;;;;;3.33;2.53;;;14.10;1.00;;;;;;5056398;28;20449;-78
2022/07/28 04:11:53;;;;;;;4.13;2.97;;;14.10;1.00;;;;;;5056018;28;20452;-79
2022/07/28 04:14:20;;;;;;;4.37;3.00;;;14.20;1.00;;;;;;5055471;28;20449;-78
2022/07/28 04:16:48;;;;;;;4.60;2.90;;;14.30;1.00;;;;;;5056100;28;20465;-78
2022/07/28 04:19:15;;;;;;;5.57;3.20;;;14.30;1.00;;;;;;5056789;28;20445;-77
2022/07/28 04:21:42;;;;;;;6.10;3.30;;;14.30;1.00;;;;;;5058219;28;20445;-79
2022/07/28 04:24:10;;;;;;;4.13;2.33;;;14.40;1.00;;;;;;5062117;28;20488;-78
2022/07/28 04:26:37;;;;;;;4.60;3.10;;;14.70;1.00;;;;;;5067657;28;20457;-77
2022/07/28 04:29:04;;;;;;;4.63;2.80;;;14.60;1.00;;;;;;5085487;22;20493;-77
2022/07/28 04:31:31;;;;;;;6.13;2.93;;;14.60;1.00;;;;;;5072925;28;20444;-77
2022/07/28 04:33:59;;;;;;;4.40;3.13;;;14.50;1.00;;;;;;5072460;28;20449;-77
2022/07/28 04:36:26;;;;;;;4.93;2.93;;;14.60;1.00;;;;;;5073074;28;20479;-77
2022/07/28 04:38:53;;;;;;;8.33;3.70;;;14.60;1.00;;;;;;5073003;28;20467;-77
2022/07/28 04:41:19;;;;;;;8.70;3.70;;;14.60;1.00;;;;;;5073763;28;20448;-77
2022/07/28 04:43:46;;;;;;;5.30;3.37;;;14.70;1.00;;;;;;5073211;28;20480;-78
2022/07/28 04:46:13;;;;;;;5.80;2.60;;;14.70;99.90;;;;;;5073537;28;20448;-77
2022/07/28 04:48:39;;;;;;;4.83;2.80;;;14.70;1.00;;;;;;5075222;28;20469;-78
2022/07/28 04:51:08;;;;;;;5.57;2.87;;;14.80;1.00;;;;;;5087216;28;20444;-78
2022/07/28 04:53:34;;;;;;;8.73;2.43;;;14.90;1.00;;;;;;5087472;28;20456;-78
2022/07/28 04:56:01;;;;;;;3.27;2.97;;;14.90;1.00;;;;;;5086631;28;20467;-78
2022/07/28 04:58:28;;;;;;;4.70;2.63;;;15.00;1.30;;;;;;5087094;28;20512;-78
2022/07/28 05:00:55;;;;;;;4.87;1.90;;;15.10;99.90;;;;;;5089651;28;20453;-77
2022/07/28 05:03:21;;;;;;;4.27;2.47;;;15.20;1.00;;;;;;5088367;28;20492;-78
2022/07/28 05:05:48;;;;;;;3.40;2.90;;;15.30;1.00;;;;;;5088144;28;20455;-78
2022/07/28 05:08:16;;;;;;;6.03;2.73;;;15.30;99.90;;;;;;5086976;28;20468;-78
2022/07/28 05:10:43;;;;;;;8.17;3.00;;;15.40;99.90;;;;;;5087870;28;20819;-78
2022/07/28 05:13:10;;;;;;;8.30;2.87;;;15.30;1.00;;;;;;5084676;28;20517;-78
2022/07/28 05:15:37;;;;;;;5.93;2.63;;;15.30;98.20;;;;;;5075262;28;20452;-78
2022/07/28 05:18:04;;;;;;;7.60;3.00;;;15.30;99.90;;;;;;5074181;28;21014;-78
2022/07/28 05:20:32;;;;;;;8.00;2.70;;;15.30;1.00;;;;;;5075055;28;20437;-78
2022/07/28 05:22:58;;;;;;;3.60;2.33;;;15.30;99.90;;;;;;5074558;28;20484;-78
2022/07/28 05:25:26;;;;;;;7.10;2.70;;;15.40;1.00;;;;;;5074510;28;20448;-78
2022/07/28 05:27:54;;;;;;;8.90;2.70;;;15.40;1.00;;;;;;5073588;28;20983;-78
2022/07/28 05:30:21;;;;;;;5.13;4.20;;;15.60;99.90;;;;;;5074732;28;20455;-79
2022/07/28 05:32:49;;;;;;;6.73;2.90;;;15.60;99.90;;;;;;5073832;28;20441;-79
2022/07/28 05:35:16;;;;;;;8.53;2.20;;;15.60;99.90;;;;;;5074251;28;20452;-78
2022/07/28 05:37:43;;;;;;;3.10;2.60;;;15.50;99.90;;;;;;5075083;28;20842;-78
2022/07/28 05:40:12;;;;;;;6.30;3.23;;;15.70;1.00;;;;;;5080733;28;20483;-78
2022/07/28 05:42:41;;;;;;;9.03;3.00;;;15.70;1.00;;;;;;5080298;28;20433;-78
2022/07/28 05:45:09;;;;;;;11.07;2.40;;;15.80;1.00;;;;;;5078718;28;20453;-78
2022/07/28 05:47:44;;;;;;;3.17;1.80;;;15.90;99.90;;;;;;5079403;28;20487;-78
2022/07/28 05:50:11;;;;;;;5.80;2.27;;;15.90;99.90;;;;;;5078691;28;20450;-78
2022/07/28 05:52:38;;;;;;;10.00;2.50;;;16.00;1.00;;;;;;5078267;28;20444;-78
2022/07/28 05:55:06;;;;;;;5.50;2.27;;;16.10;1.00;;;;;;5077839;28;20456;-78
2022/07/28 05:57:33;;;;;;;6.00;2.50;;;16.10;1.00;;;;;;5085567;28;20491;-77
2022/07/28 06:00:01;;;;;;;8.27;2.20;;;16.20;96.60;;;;;;5091445;28;20444;-78
2022/07/28 06:02:28;;;;;;;10.80;2.47;;;16.10;1.00;;;;;;5080738;28;20506;-78
2022/07/28 06:04:54;;;;;;;2.53;2.13;;;16.20;1.00;;;;;;5079288;28;20495;-78
2022/07/28 06:07:21;;;;;;;7.30;2.20;;;16.30;1.00;;;;;;5077692;28;20464;-78
2022/07/28 06:09:48;;;;;;;3.37;2.07;;;16.20;1.00;;;;;;5077236;28;20516;-79
2022/07/28 06:12:15;;;;;;;7.53;2.50;;;16.30;99.90;;;;;;5076749;28;20456;-78
2022/07/28 06:14:41;;;;;;;7.03;2.70;;;16.10;1.00;;;;;;5077219;28;20452;-78
2022/07/28 06:17:09;;;;;;;3.33;1.87;;;16.40;99.90;;;;;;5077084;28;20451;-78
2022/07/28 06:19:36;;;;;;;7.00;2.20;;;16.10;99.90;;;;;;5077373;28;20535;-78
2022/07/28 06:22:05;;;;;;;4.20;2.40;;;16.10;99.90;;;;;;5077477;28;20502;-77
2022/07/28 06:24:31;;;;;;;3.37;1.90;;;16.20;99.90;;;;;;5076303;28;20484;-77
2022/07/28 06:27:00;;;;;;;6.67;2.53;;;16.30;99.90;;;;;;5075722;28;20444;-78
2022/07/28 06:29:26;;;;;;;8.40;2.10;;;16.40;99.90;;;;;;5075778;28;20959;-78
2022/07/28 06:31:53;;;;;;;5.53;2.77;;;16.50;39.70;;;;;;5075867;28;20940;-78
2022/07/28 06:34:21;;;;;;;8.00;2.30;;;16.50;1.00;;;;;;5077555;28;20441;-78
2022/07/28 06:36:48;;;;;;;4.30;1.70;;;16.50;1.00;;;;;;5077485;28;20506;-78
2022/07/28 06:39:15;;;;;;;4.03;1.90;;;16.60;1.00;;;;;;5076877;28;20473;-78
2022/07/28 06:41:43;;;;;;;4.10;2.60;;;16.80;99.90;;;;;;5076906;28;20966;-78
2022/07/28 06:44:10;;;;;;;5.10;2.70;;;17.00;99.90;;;;;;5077076;28;20484;-78
2022/07/28 06:46:37;;;;;;;6.33;2.30;;;16.90;1.00;;;;;;5078939;28;20451;-78
2022/07/28 06:49:04;;;;;;;2.73;2.13;;;17.20;1.00;;;;;;5078141;28;20468;-78
2022/07/28 06:51:32;;;;;;;8.13;2.50;;;17.30;1.00;;;;;;5077664;28;20445;-78
2022/07/28 06:53:59;;;;;;;5.50;2.80;;;17.30;99.90;;;;;;5076559;28;20441;-78
2022/07/28 06:56:26;;;;;;;3.70;3.03;;;17.20;99.90;;;;;;5075220;28;20445;-78
2022/07/28 06:58:52;;;;;;;4.30;2.20;;;17.30;99.90;;;;;;5076426;28;20475;-78
2022/07/28 07:01:19;;;;;;;4.63;2.37;;;17.10;99.90;;;;;;5076560;28;20449;-78
2022/07/28 07:03:46;;;;;;;3.63;2.50;;;17.10;1.00;;;;;;5075808;28;20488;-76
2022/07/28 07:06:13;;;;;;;3.57;2.07;;;17.10;99.90;;;;;;5083557;28;20453;-77
2022/07/28 07:08:41;;;;;;;3.77;2.63;;;17.10;99.90;;;;;;5083197;28;20900;-77
2022/07/28 07:11:28;;;;;;;;;;;;;;;;;;;;;
2022/07/28 07:13:55;;;;;;;10.60;2.27;;;17.20;99.90;;;;;;5078854;28;20516;-77
2022/07/28 07:16:21;;;;;;;5.03;2.30;;;17.40;99.90;;;;;;5074512;28;20824;-79
2022/07/28 07:18:51;;;;;;;10.03;3.37;;;17.50;99.90;;;;;;5074601;28;20975;-78
2022/07/28 07:21:18;;;;;;;5.57;2.30;;;17.40;99.90;;;;;;5075218;28;20453;-77
2022/07/28 07:23:47;;;;;;;6.37;2.33;;;17.40;99.90;;;;;;5075144;28;20476;-77
2022/07/28 07:26:14;;;;;;;5.70;2.40;;;17.50;99.90;;;;;;5075435;28;20445;-77
2022/07/28 07:28:41;;;;;;;4.97;2.47;;;17.70;1.00;;;;;;5074599;28;20485;-77
2022/07/28 07:31:08;;;;;;;5.47;2.73;;;17.80;99.90;;;;;;5074968;28;20498;-78
2022/07/28 07:33:35;;;;;;;5.80;2.53;;;17.80;99.90;;;;;;5074847;28;20448;-78
2022/07/28 07:36:01;;;;;;;7.23;2.40;;;17.70;99.90;;;;;;5076091;28;20436;-78
2022/07/28 07:38:28;;;;;;;6.63;3.07;;;17.80;99.90;;;;;;5075211;28;20475;-77
2022/07/28 07:40:58;;;;;;;6.10;2.97;;;17.80;46.20;;;;;;5073894;28;20448;-77
2022/07/28 07:43:26;;;;;;;4.70;2.20;;;17.70;99.90;;;;;;5074757;28;20439;-80
2022/07/28 07:45:53;;;;;;;4.40;2.30;;;17.70;88.70;;;;;;5074345;28;20445;-78
2022/07/28 07:48:20;;;;;;;5.53;2.50;;;17.80;99.90;;;;;;5074137;28;20549;-78
2022/07/28 07:50:46;;;;;;;6.60;1.87;;;17.90;99.90;;;;;;5074882;28;20441;-79
2022/07/28 07:53:13;;;;;;;5.70;2.30;;;17.80;21.50;;;;;;5075340;28;20813;-78
2022/07/28 07:55:40;;;;;;;5.93;2.50;;;18.10;99.90;;;;;;5074844;28;20445;-78
2022/07/28 07:58:08;;;;;;;5.27;2.90;;;18.20;99.90;;;;;;5075996;28;20473;-78
2022/07/28 08:00:35;;;;;;;7.07;2.70;;;18.30;99.90;;;;;;5076410;28;20437;-78
2022/07/28 08:03:01;;;;;;;4.00;2.50;;;18.40;11.40;;;;;;5077274;28;20437;-79
2022/07/28 08:05:29;;;;;;;6.30;2.13;;;18.40;1.00;;;;;;5076307;28;20492;-78
2022/07/28 08:07:56;;;;;;;6.40;2.13;;;18.50;1.00;;;;;;5080476;28;21042;-78
2022/07/28 08:10:23;;;;;;;6.50;2.87;;;18.50;1.00;;;;;;5077318;28;20444;-78
2022/07/28 08:12:49;;;;;;;2.77;1.90;;;18.60;1.00;;;;;;5080269;28;20475;-78
2022/07/28 08:15:17;;;;;;;6.40;2.27;;;18.50;1.00;;;;;;5075470;28;20441;-80
2022/07/28 08:17:44;;;;;;;6.47;2.63;;;18.30;1.00;;;;;;5076209;28;20994;-80
2022/07/28 08:20:12;;;;;;;3.83;1.90;;;18.10;1.00;;;;;;5076366;28;20479;-79
2022/07/28 08:22:47;;;;;;;3.00;2.33;;;18.10;1.00;;;;;;5075835;28;20518;-79
2022/07/28 08:25:14;;;;;;;7.47;3.70;;;18.40;1.00;;;;;;5074700;28;20464;-79
2022/07/28 08:27:40;;;;;;;4.30;3.33;;;18.60;1.00;;;;;;5074267;28;20540;-79
2022/07/28 08:30:09;;;;;;;4.07;2.20;;;18.80;1.00;;;;;;5074700;28;21000;-79
2022/07/28 08:32:37;;;;;;;11.00;3.20;;;18.70;1.00;;;;;;5074971;28;20449;-79
2022/07/28 08:35:05;;;;;;;12.23;2.43;;;18.70;1.00;;;;;;5075122;28;20445;-79
2022/07/28 08:37:32;;;;;;;4.80;2.40;;;18.70;1.00;;;;;;5075417;28;20465;-80
2022/07/28 08:39:58;;;;;;;5.90;2.70;;;18.80;1.00;;;;;;5075682;28;20823;-80
2022/07/28 08:42:34;;;;;;;4.20;2.37;;;19.00;1.00;;;;;;5075052;28;20975;-79
2022/07/28 08:45:04;;;;;;;5.60;2.27;;;18.80;1.00;;;;;;5075963;28;20464;-79
2022/07/28 08:47:32;;;;;;;6.83;2.37;;;18.60;1.00;;;;;;5081407;28;20469;-78
2022/07/28 08:50:00;;;;;;;4.37;2.33;;;18.50;1.00;;;;;;5082569;28;20451;-78
2022/07/28 08:52:30;;;;;;;3.93;2.20;;;18.40;1.00;;;;;;5082528;28;20453;-86
2022/07/28 08:54:58;;;;;;;6.43;2.50;;;18.40;1.00;;;;;;5083163;28;20519;-78
2022/07/28 08:57:28;;;;;;;7.27;3.40;;;18.50;1.00;;;;;;5080475;28;20563;-78
2022/07/28 08:59:55;;;;;;;3.50;2.83;;;18.50;1.00;;;;;;5083541;28;20509;-78
2022/07/28 09:02:25;;;;;;;3.80;2.27;;;18.50;1.00;;;;;;5082277;28;20448;-79
2022/07/28 09:04:52;;;;;;;6.60;2.77;;;18.80;1.00;;;;;;5083118;28;20548;-78
2022/07/28 09:07:21;;;;;;;11.33;3.50;;;19.10;1.00;;;;;;5080033;28;20480;-79
2022/07/28 09:09:48;;;;;;;7.53;3.33;;;19.10;1.00;;;;;;5081517;28;20479;-78
2022/07/28 09:12:15;;;;;;;6.17;2.43;;;19.20;1.00;;;;;;5080608;28;20453;-78
2022/07/28 09:14:42;;;;;;;4.67;2.30;;;19.50;1.00;;;;;;5081171;28;20807;-78
2022/07/28 09:17:09;;;;;;;9.63;2.60;;;19.80;1.00;;;;;;5077508;28;20556;-78
2022/07/28 09:19:37;;;;;;;4.60;2.60;;;19.50;1.00;;;;;;5080693;28;20448;-78
2022/07/28 09:22:04;;;;;;;3.53;2.20;;;19.60;1.00;;;;;;5084153;28;20468;-78
2022/07/28 09:24:43;;;;;;;4.07;2.03;;;19.60;1.00;;;;;;5082689;28;20480;-79
2022/07/28 09:27:11;;;;;;;6.03;2.33;;;19.40;1.00;;;;;;5080173;28;20425;-78
2022/07/28 09:29:39;;;;;;;7.60;2.13;;;19.70;1.00;;;;;;5081270;28;20850;-78
2022/07/28 09:32:07;;;;;;;7.13;4.40;;;19.60;1.00;;;;;;5079019;28;20459;-78
2022/07/28 09:34:41;;;;;;;3.60;2.60;;;19.40;1.00;;;;;;5079367;28;20447;-78
2022/07/28 09:37:09;;;;;;;4.00;2.70;;;19.10;1.00;;;;;;5078942;28;20449;-78
2022/07/28 09:39:37;;;;;;;3.40;2.60;;;19.30;1.00;;;;;;5078619;28;20455;-79
2022/07/28 09:42:04;;;;;;;3.43;1.67;;;19.30;1.00;;;;;;5078007;28;20506;-78
2022/07/28 09:44:37;;;;;;;3.73;2.00;;;19.40;1.00;;;;;;5078111;28;20487;-79
2022/07/28 09:47:22;;;;;;;5.40;1.90;;;19.70;1.00;;;;;;5078138;28;20445;-78
2022/07/28 09:49:48;;;;;;;5.03;3.20;;;19.60;1.00;;;;;;5081267;28;20499;-77
2022/07/28 09:52:27;;;;;;;2.17;1.97;;;19.90;1.00;;;;;;5078011;28;20804;-78
2022/07/28 09:55:02;;;;;;;5.53;2.40;;;19.70;1.00;;;;;;5076783;28;20460;-77
2022/07/28 09:57:29;;;;;;;5.77;2.13;;;19.70;1.00;;;;;;5076403;28;20975;-77
2022/07/28 09:59:56;;;;;;;6.70;1.67;;;19.70;1.00;;;;;;5077107;28;20448;-77
2022/07/28 10:02:24;;;;;;;2.00;1.67;;;19.90;1.00;;;;;;5077765;28;20452;-77
2022/07/28 10:04:52;;;;;;;4.57;1.90;;;20.00;1.00;;;;;;5076080;28;21143;-77
2022/07/28 10:07:19;;;;;;;3.93;2.20;;;20.10;1.00;;;;;;5076337;28;20465;-76
2022/07/28 10:09:56;;;;;;;4.40;2.33;;;20.20;1.00;;;;;;5075627;28;20440;-77
2022/07/28 10:12:26;;;;;;;2.83;1.80;;;20.10;1.00;;;;;;5075735;28;20946;-76
2022/07/28 10:14:55;;;;;;;5.70;2.10;;;19.90;1.00;;;;;;5079748;28;20440;-77
2022/07/28 10:17:23;;;;;;;4.43;2.00;;;20.00;1.00;;;;;;5081567;28;20468;-77
2022/07/28 10:19:53;;;;;;;3.30;3.00;;;19.50;1.00;;;;;;5083241;28;20470;-77
2022/07/28 10:22:21;;;;;;;6.53;2.00;;;20.10;1.00;;;;;;5081616;28;20481;-77
2022/07/28 10:24:51;;;;;;;2.80;1.70;;;19.90;1.00;;;;;;5076210;28;20480;-78
2022/07/28 10:30:04;;;;;;;3.40;2.40;;;20.70;1.00;;;;;;5132074;27;20565;-77
2022/07/28 10:32:36;;;;;;;4.37;2.33;;;20.70;1.00;;;;;;5131621;27;20790;-77
2022/07/28 10:35:05;;;;;;;3.20;2.47;;;20.90;1.00;;;;;;5131238;28;20427;-76
2022/07/28 10:37:34;;;;;;;3.00;1.63;;;20.90;1.00;;;;;;5131608;28;20446;-77
2022/07/28 10:40:03;;;;;;;3.03;2.10;;;21.10;99.90;;;;;;5131537;27;20814;-77
2022/07/28 10:42:31;;;;;;;2.97;2.00;;;21.00;1.00;;;;;;5131512;28;20451;-77
2022/07/28 10:44:58;;;;;;;2.40;1.80;;;21.00;99.90;;;;;;5131496;28;20473;-77
2022/07/28 10:47:27;;;;;;;5.53;2.77;;;21.20;99.90;;;;;;5131611;28;20450;-77
2022/07/28 10:49:55;;;;;;;6.83;1.90;;;21.30;99.90;;;;;;5131275;28;20568;-77
2022/07/28 10:52:23;;;;;;;4.60;3.40;;;21.50;99.90;;;;;;5131310;28;20446;-77
2022/07/28 10:54:59;;;;;;;9.43;2.70;;;21.40;99.90;;;;;;5130918;28;20540;-77
2022/07/28 10:57:26;;;;;;;3.97;2.23;;;21.30;99.90;;;;;;5131331;28;20433;-78
2022/07/28 11:00:06;;;;;;;3.90;1.90;;;21.20;99.90;;;;;;5131073;28;20804;-78
2022/07/28 11:02:51;;;;;;;4.87;2.20;;;21.50;99.90;;;;;;5131075;28;20465;-78
2022/07/28 11:05:37;;;;;;;2.60;1.93;;;21.70;99.90;;;;;;5130978;28;20431;-77
2022/07/28 11:08:06;;;;;;;5.20;2.20;;;21.70;99.90;;;;;;5130453;28;20975;-77
2022/07/28 11:10:47;;;;;;;3.27;1.50;;;21.50;99.90;;;;;;5130913;28;20442;-76
2022/07/28 11:13:28;;;;;;;2.13;1.83;;;21.00;99.90;;;;;;5131063;28;20453;-77
2022/07/28 11:15:56;;;;;;;3.00;2.00;;;20.70;99.90;;;;;;5130941;28;20434;-77
2022/07/28 11:18:24;;;;;;;2.83;1.83;;;20.60;99.90;;;;;;5131346;28;20458;-77
2022/07/28 11:21:10;;;;;;;4.40;1.93;;;20.60;1.00;;;;;;5130734;28;20461;-78
2022/07/28 11:23:46;;;;;;;2.50;2.07;;;20.80;99.90;;;;;;5130606;28;20446;-77
2022/07/28 11:26:35;;;;;;;3.03;1.90;;;21.10;1.00;;;;;;5130275;28;20971;-77
2022/07/28 11:29:18;;;;;;;5.63;2.40;;;21.10;99.90;;;;;;5129994;27;20489;-77
2022/07/28 11:32:05;;;;;;;5.50;2.33;;;20.80;99.90;;;;;;5130177;28;20944;-77
2022/07/28 11:35:17;;;;;;;2.87;1.90;;;20.80;99.90;;;;;;5130530;28;20495;-77
2022/07/28 11:38:11;;;;;;;3.97;1.70;;;20.50;1.00;;;;;;5130576;28;20423;-77
2022/07/28 11:40:40;;;;;;;3.57;1.87;;;20.70;99.90;;;;;;5120846;28;20443;-77
2022/07/28 11:43:29;;;;;;;3.33;2.27;;;21.20;99.90;;;;;;5116803;28;20449;-77
2022/07/28 11:46:33;;;;;;;3.00;2.67;;;20.80;99.90;;;;;;5117905;28;20439;-77
2022/07/28 11:49:33;;;;;;;4.73;2.20;;;21.10;99.90;;;;;;5117217;28;20906;-77
2022/07/28 11:52:27;;;;;;;3.90;2.17;;;21.60;1.00;;;;;;5116359;28;20434;-77
2022/07/28 11:54:57;;;;;;;6.40;1.70;;;21.80;99.90;;;;;;5117460;28;20964;-78
2022/07/28 11:57:27;;;;;;;7.47;2.87;;;21.70;99.90;;;;;;5116924;28;20451;-77
2022/07/28 11:59:57;;;;;;;2.90;1.63;;;21.90;99.90;;;;;;5121101;28;20423;-78
2022/07/28 12:02:27;;;;;;;5.13;2.30;;;21.90;99.90;;;;;;5116710;28;20431;-77
2022/07/28 12:05:02;;;;;;;2.63;1.63;;;21.90;99.90;;;;;;5116142;28;20476;-77
2022/07/28 12:07:38;;;;;;;2.70;2.10;;;21.50;99.90;;;;;;5116399;28;20726;-77
2022/07/28 12:10:30;;;;;;;3.77;2.40;;;21.50;99.90;;;;;;5116432;28;20977;-78
2022/07/28 12:12:59;;;;;;;3.87;1.50;;;21.70;99.90;;;;;;5117100;28;20451;-77
2022/07/28 12:15:26;;;;;;;5.00;2.13;;;21.60;99.90;;;;;;5116543;28;20478;-77
2022/07/28 12:17:53;;;;;;;2.87;1.73;;;21.70;99.90;;;;;;5116136;28;20905;-77
2022/07/28 12:20:20;;;;;;;5.10;2.23;;;21.70;99.90;;;;;;5116370;28;20537;-78
2022/07/28 12:22:55;;;;;;;4.07;1.80;;;22.20;1.00;;;;;;5116001;28;20494;-78
2022/07/28 12:25:22;;;;;;;5.20;2.37;;;21.90;99.90;;;;;;5115821;28;20492;-78
2022/07/28 12:27:50;;;;;;;3.13;1.60;;;21.90;99.90;;;;;;5116292;28;20818;-77
2022/07/28 12:30:25;;;;;;;3.90;2.10;;;21.90;99.90;;;;;;5116709;28;20832;-78
2022/07/28 12:32:52;;;;;;;5.23;1.73;;;22.50;1.00;;;;;;5116331;28;20442;-79
2022/07/28 12:35:19;;;;;;;4.83;2.50;;;22.10;99.90;;;;;;5116200;28;20817;-78
2022/07/28 12:37:47;;;;;;;3.20;1.97;;;22.00;99.90;;;;;;5117120;28;20827;-79
2022/07/28 12:40:17;;;;;;;5.87;2.17;;;22.10;99.90;;;;;;5116955;28;20937;-78
2022/07/28 12:42:44;;;;;;;5.37;2.10;;;21.70;99.90;;;;;;5117092;28;20434;-78
2022/07/28 12:45:13;;;;;;;2.47;2.27;;;21.60;99.90;;;;;;5125605;28;20472;-79
2022/07/28 12:47:40;;;;;;;3.40;2.17;;;21.20;99.90;;;;;;5126763;28;20790;-78
2022/07/28 12:50:14;;;;;;;3.17;1.73;;;21.50;99.90;;;;;;5127901;28;20572;-80
2022/07/28 12:52:42;;;;;;;3.27;2.97;;;21.60;99.90;;;;;;5124659;28;20446;-79
2022/07/28 12:55:24;;;;;;;3.23;2.03;;;21.80;99.90;;;;;;5121476;28;20450;-78
2022/07/28 12:57:51;;;;;;;6.30;2.40;;;22.00;99.90;;;;;;5119303;28;20550;-78
2022/07/28 13:00:22;;;;;;;3.77;1.73;;;22.10;99.90;;;;;;5119950;28;20439;-78
2022/07/28 13:02:51;;;;;;;9.63;3.10;;;22.30;99.90;;;;;;5120321;28;20427;-77
2022/07/28 13:06:01;;;;;;;4.80;1.93;;;22.50;99.90;;;;;;5123855;28;20450;-79
2022/07/28 13:08:20;;;;;;;5.47;1.73;;;22.30;99.90;;;;;;5119230;28;21109;-77